Casper, Wyoming Weather

Natrona County International Airport, Casper, WY: 3/29/2017 07:53
Visibility10 statute milesclear sky
View 7-Day Forecast
Area Summary
Sky/CloudsSky Clear
Weather [last 24 hours]None
Pressure30.13 in.Hg (1020 hPa)
Dew Point30.9 °F (-0.6 °C)
Relative Humidity91.7 %
Reading TimePrecipitation
24-hr ending 3/29@05:530.03 in. (0.762 mm)
Temperature33.1 °F (0.6 °C)red thermometer
Wind Chill25.5 °F (-3.61 °C)
Reading TimeMinimum to Maximum Temperature
6-hr ending 3/29@05:5326.1 °F to 35.1 °F (-3.3 °C to 1.7 °C)
6-hr ending 3/28@23:5334 °F to 42.1 °F (1.1 °C to 5.6 °C)
6-hr ending 3/28@17:5337.9 °F to 43 °F (3.3 °C to 6.1 °C)
24-hr ending 3/29@00:5330 °F to 43 °F (-1.1 °C to 6.1 °C)
Wind9.21 MPH (8 KT) green arrow pointing 225 degrees
Wind FromSouthwest (230 Degrees)
Rolling 24-hr Peak Wind32.2 MPH (28 KT) on 3/28@12:29
Rolling 24-hr Peak Wind FromNorth (010 Degrees)
Twilight Begins06:23Sunshine Yesterday
Sunrise06:51N/A
Sunset19:30
Twilight Ends19:59
METARKCPR 291353Z 23008KT 10SM CLR 01/M01 A3013 RMK AO2 SLP210 T00061006